Time;durP1;ratioP1;P1;durP2;ratioP2;P2;SDS_P1;SDS_P2;PMS_P1;PMS_P2;Temp;Humidity;BMP_temperature;BMP_pressure;BME280_temperature;BME280_humidity;BME280_pressure;Samples;Min_cycle;Max_cycle;Signal;HPM_P1;HPM_P2
2023/04/30 04:37:36;;;;;;;14.68;2.33;;;14.50;65.70;;;;;;5128172;24;20066;-72
2023/04/30 04:40:04;;;;;;;12.10;1.60;;;14.70;65.60;;;;;;4807683;29;20356;-73
2023/04/30 04:42:31;;;;;;;14.07;2.30;;;14.70;65.70;;;;;;4808894;29;20063;-79
2023/04/30 04:44:57;;;;;;;18.05;2.25;;;14.80;65.90;;;;;;4810416;29;20362;-72
2023/04/30 04:47:23;;;;;;;18.10;2.67;;;14.90;66.20;;;;;;4810407;29;20062;-69
2023/04/30 04:49:49;;;;;;;13.88;2.13;;;14.90;67.10;;;;;;4804850;29;20375;-75
2023/04/30 04:52:15;;;;;;;21.67;3.42;;;14.90;66.20;;;;;;4807899;29;20065;-73
2023/04/30 04:54:41;;;;;;;18.10;2.63;;;14.90;66.20;;;;;;4807991;29;20443;-74
2023/04/30 04:57:06;;;;;;;10.55;2.15;;;14.90;65.80;;;;;;4807156;29;20058;-73
2023/04/30 04:59:32;;;;;;;18.17;2.75;;;14.90;64.40;;;;;;4806890;29;20093;-73
2023/04/30 05:01:58;;;;;;;23.00;3.35;;;14.80;66.20;;;;;;4791958;29;20047;-74
2023/04/30 05:04:23;;;;;;;32.10;3.70;;;14.90;66.80;;;;;;4808056;29;20050;-73
2023/04/30 05:06:49;;;;;;;15.00;2.45;;;15.00;66.90;;;;;;4791646;29;20115;-73
2023/04/30 05:09:15;;;;;;;15.88;2.53;;;15.00;67.40;;;;;;4807055;29;20082;-73
2023/04/30 05:11:42;;;;;;;22.42;3.20;;;15.00;67.30;;;;;;4807652;29;20047;-72
2023/04/30 05:14:08;;;;;;;26.60;3.78;;;15.10;67.30;;;;;;4807536;29;20061;-72
2023/04/30 05:16:37;;;;;;;30.35;3.88;;;15.10;65.10;;;;;;4807248;29;20051;-73
2023/04/30 05:19:03;;;;;;;30.02;4.85;;;15.10;67.00;;;;;;4791583;29;20055;-69
2023/04/30 05:21:30;;;;;;;32.38;4.97;;;15.30;68.10;;;;;;4798788;29;20356;-73
2023/04/30 05:23:56;;;;;;;31.92;4.75;;;15.40;67.60;;;;;;4802094;29;20082;-72
2023/04/30 05:26:23;;;;;;;31.20;4.18;;;15.60;67.40;;;;;;4807755;29;20091;-72
2023/04/30 05:28:49;;;;;;;22.77;3.60;;;15.70;67.20;;;;;;4802019;29;20058;-72
2023/04/30 05:31:15;;;;;;;26.67;3.70;;;15.70;64.60;;;;;;4789997;30;20051;-72
2023/04/30 05:33:41;;;;;;;18.67;2.90;;;15.80;66.70;;;;;;4789866;30;20078;-72
2023/04/30 05:36:07;;;;;;;12.65;2.10;;;15.90;67.20;;;;;;4799186;29;20054;-75
2023/04/30 05:38:32;;;;;;;9.93;1.83;;;15.90;65.60;;;;;;4791574;29;20066;-72
2023/04/30 05:40:59;;;;;;;8.23;2.50;;;15.90;64.50;;;;;;4789527;29;20077;-79
2023/04/30 05:43:25;;;;;;;16.30;2.83;;;15.90;63.50;;;;;;4807062;29;20046;-77
2023/04/30 05:45:51;;;;;;;18.52;2.47;;;15.80;62.60;;;;;;4806640;29;20051;-75
2023/04/30 05:48:16;;;;;;;18.27;2.85;;;15.90;62.50;;;;;;4792003;29;20539;-76
2023/04/30 05:50:42;;;;;;;10.85;2.00;;;15.70;61.20;;;;;;4807184;29;20058;-76
2023/04/30 05:53:08;;;;;;;17.70;2.40;;;15.30;61.20;;;;;;4808082;29;20047;-75
2023/04/30 05:55:34;;;;;;;18.58;2.42;;;15.20;62.10;;;;;;4791911;29;20055;-74
2023/04/30 05:57:59;;;;;;;18.35;2.58;;;15.20;63.90;;;;;;4807482;29;20481;-73
2023/04/30 06:00:25;;;;;;;23.63;3.15;;;15.40;64.70;;;;;;4807311;29;20051;-72
2023/04/30 06:02:51;;;;;;;22.23;2.83;;;15.50;64.80;;;;;;4807342;29;20047;-72
2023/04/30 06:05:17;;;;;;;12.10;2.63;;;15.60;64.10;;;;;;4807758;29;20132;-75
2023/04/30 06:07:43;;;;;;;21.17;3.00;;;15.70;62.90;;;;;;4806826;29;20042;-74
2023/04/30 06:10:09;;;;;;;16.77;2.70;;;15.80;61.80;;;;;;4807430;29;20054;-77
2023/04/30 06:12:35;;;;;;;10.52;1.65;;;15.90;61.70;;;;;;4807088;29;20066;-79
2023/04/30 06:15:01;;;;;;;17.70;2.80;;;15.90;61.50;;;;;;4807071;29;20054;-78
2023/04/30 06:17:26;;;;;;;28.38;3.30;;;16.00;61.50;;;;;;4790924;29;20055;-80
2023/04/30 06:19:52;;;;;;;24.65;3.55;;;16.00;61.50;;;;;;4792641;29;20051;-77
2023/04/30 06:22:18;;;;;;;26.15;3.17;;;16.10;61.80;;;;;;4810370;29;20097;-77
2023/04/30 06:24:44;;;;;;;27.92;3.63;;;16.10;61.60;;;;;;4810205;29;20057;-74
2023/04/30 06:27:10;;;;;;;23.60;3.63;;;16.20;61.70;;;;;;4810377;29;20058;-72
2023/04/30 06:29:35;;;;;;;20.92;3.70;;;16.20;61.30;;;;;;4810340;29;20106;-72
2023/04/30 06:32:01;;;;;;;37.03;5.82;;;16.20;61.40;;;;;;4810597;29;20047;-72
2023/04/30 06:34:27;;;;;;;19.88;3.65;;;16.20;61.50;;;;;;4794099;29;20054;-70
2023/04/30 06:36:52;;;;;;;14.80;2.63;;;16.20;61.40;;;;;;4809920;29;20046;-73
2023/04/30 06:39:18;;;;;;;7.68;1.67;;;16.10;60.70;;;;;;4793586;29;20055;-72
2023/04/30 06:41:46;;;;;;;9.18;1.92;;;16.00;60.00;;;;;;4809984;29;20382;-72
2023/04/30 06:44:11;;;;;;;8.48;1.98;;;16.00;59.50;;;;;;4809899;29;20123;-71
2023/04/30 06:46:37;;;;;;;15.40;2.33;;;15.90;59.00;;;;;;4809340;29;20054;-71
2023/04/30 06:49:03;;;;;;;15.18;2.45;;;15.80;59.10;;;;;;4809987;29;20043;-70
2023/04/30 06:51:29;;;;;;;10.82;1.77;;;15.80;59.30;;;;;;4810385;29;20433;-72
2023/04/30 06:53:55;;;;;;;12.30;2.53;;;15.70;59.40;;;;;;4810334;29;20063;-74
2023/04/30 06:56:21;;;;;;;9.05;1.92;;;15.70;59.80;;;;;;4809689;29;20130;-73
2023/04/30 06:58:49;;;;;;;8.02;2.45;;;15.60;60.00;;;;;;4810031;29;20053;-73
2023/04/30 07:01:14;;;;;;;7.72;2.35;;;15.60;60.30;;;;;;4809314;29;20055;-73
2023/04/30 07:03:40;;;;;;;9.90;1.95;;;15.60;60.30;;;;;;4809605;29;20047;-75
2023/04/30 07:06:06;;;;;;;14.60;2.13;;;15.50;60.30;;;;;;4809301;29;20106;-71
2023/04/30 07:08:31;;;;;;;8.57;2.05;;;15.50;60.30;;;;;;4809639;29;20059;-74
2023/04/30 07:10:57;;;;;;;15.68;2.40;;;15.50;60.10;;;;;;4809681;29;20054;-75
2023/04/30 07:13:23;;;;;;;10.32;1.90;;;15.50;60.30;;;;;;4803861;29;20043;-74
2023/04/30 07:15:49;;;;;;;9.40;2.00;;;15.50;60.40;;;;;;4808938;29;20078;-74
2023/04/30 07:18:15;;;;;;;9.70;2.30;;;15.50;60.50;;;;;;4809156;29;20059;-75
2023/04/30 07:20:40;;;;;;;10.23;1.90;;;15.50;60.10;;;;;;4808774;29;20466;-74
2023/04/30 07:23:06;;;;;;;8.50;1.95;;;15.50;60.40;;;;;;4808203;29;20043;-75
2023/04/30 07:25:32;;;;;;;5.13;1.80;;;15.50;60.40;;;;;;4807570;29;20046;-74
2023/04/30 07:27:57;;;;;;;8.35;2.28;;;15.50;60.10;;;;;;4809435;29;20141;-73
2023/04/30 07:30:23;;;;;;;4.25;1.42;;;15.40;59.70;;;;;;4809085;29;20134;-74
2023/04/30 07:32:49;;;;;;;6.57;1.60;;;15.40;59.60;;;;;;4808609;29;20387;-74
2023/04/30 07:35:15;;;;;;;10.65;2.25;;;15.40;59.50;;;;;;4808895;29;20058;-75
2023/04/30 07:37:42;;;;;;;7.72;1.83;;;15.30;59.30;;;;;;4807281;29;20066;-75
2023/04/30 07:40:11;;;;;;;6.70;1.92;;;15.30;59.30;;;;;;4808453;29;20471;-75
2023/04/30 07:42:40;;;;;;;9.63;2.15;;;15.30;59.30;;;;;;4808545;29;20066;-74
2023/04/30 07:45:06;;;;;;;9.52;2.42;;;15.30;59.30;;;;;;4809140;29;20141;-74
2023/04/30 07:47:32;;;;;;;11.30;2.60;;;15.20;59.30;;;;;;4807718;29;20149;-78
2023/04/30 07:49:58;;;;;;;10.30;2.10;;;15.10;59.50;;;;;;4777687;29;20466;-74
2023/04/30 07:52:23;;;;;;;8.50;2.45;;;15.10;60.00;;;;;;4808666;29;20058;-78
2023/04/30 07:54:49;;;;;;;7.25;2.10;;;15.10;60.00;;;;;;4808886;29;20051;-76
2023/04/30 07:57:15;;;;;;;7.10;2.60;;;15.10;59.80;;;;;;4792588;29;20058;-77
2023/04/30 07:59:40;;;;;;;7.28;2.35;;;15.10;59.80;;;;;;4808659;29;20103;-75
2023/04/30 08:02:07;;;;;;;12.50;2.10;;;15.00;59.90;;;;;;4808549;29;20090;-76
2023/04/30 08:04:33;;;;;;;8.07;1.77;;;15.00;60.20;;;;;;4808604;29;20065;-74
2023/04/30 08:07:00;;;;;;;10.23;2.15;;;15.00;60.50;;;;;;4808541;29;20435;-75
2023/04/30 08:09:26;;;;;;;30.08;3.78;;;15.10;60.80;;;;;;4806788;29;20134;-73
2023/04/30 08:11:52;;;;;;;15.93;2.67;;;15.10;61.10;;;;;;4808643;29;20130;-73
2023/04/30 08:14:19;;;;;;;25.92;3.53;;;15.10;61.00;;;;;;4808033;29;20091;-78
2023/04/30 08:16:44;;;;;;;21.13;3.03;;;15.10;60.90;;;;;;4791668;29;20046;-76
2023/04/30 08:19:10;;;;;;;19.15;2.60;;;15.10;60.90;;;;;;4808501;29;20061;-79
2023/04/30 08:21:36;;;;;;;12.23;2.40;;;15.10;60.90;;;;;;4808067;29;20055;-78
2023/04/30 08:24:02;;;;;;;16.98;3.00;;;15.10;60.80;;;;;;4792656;29;20398;-74
2023/04/30 08:26:28;;;;;;;14.93;2.58;;;15.10;61.00;;;;;;4808463;29;20047;-77
2023/04/30 08:28:54;;;;;;;14.90;1.88;;;15.20;61.40;;;;;;4802762;29;20055;-77
2023/04/30 08:31:20;;;;;;;23.92;3.25;;;15.10;61.60;;;;;;4807134;29;20546;-76
2023/04/30 08:33:45;;;;;;;12.85;2.85;;;15.20;61.80;;;;;;4791839;29;20374;-78
2023/04/30 08:36:11;;;;;;;18.42;3.50;;;15.20;61.90;;;;;;4792073;29;20111;-79
2023/04/30 08:38:37;;;;;;;15.10;2.85;;;15.20;62.00;;;;;;4807818;29;20593;-77
2023/04/30 08:41:12;;;;;;;14.77;2.88;;;15.20;62.30;;;;;;4807598;29;20070;-73
2023/04/30 08:43:43;;;;;;;22.85;3.20;;;15.20;62.70;;;;;;4791418;29;20129;-78
2023/04/30 08:46:12;;;;;;;20.58;3.42;;;15.20;62.70;;;;;;4802184;29;20340;-78
2023/04/30 08:48:43;;;;;;;19.27;3.55;;;15.20;62.90;;;;;;4791256;29;20470;-80
2023/04/30 08:51:08;;;;;;;27.33;4.38;;;15.20;63.00;;;;;;4776293;29;20058;-75
2023/04/30 08:53:36;;;;;;;26.33;3.90;;;15.20;63.90;;;;;;4808051;29;20374;-76
2023/04/30 08:56:03;;;;;;;28.05;4.18;;;15.30;63.70;;;;;;4800088;29;20047;-76
2023/04/30 08:58:29;;;;;;;20.73;3.42;;;15.30;63.20;;;;;;4807648;29;20050;-77
2023/04/30 09:00:58;;;;;;;21.95;4.50;;;15.30;62.80;;;;;;4807263;29;20340;-76
2023/04/30 09:03:24;;;;;;;26.45;3.75;;;15.30;62.70;;;;;;4808062;29;20065;-77
2023/04/30 09:05:50;;;;;;;23.13;3.70;;;15.30;62.50;;;;;;4791705;29;20054;-81
2023/04/30 09:08:17;;;;;;;30.98;4.18;;;15.30;62.40;;;;;;4798593;29;20048;-76
2023/04/30 09:10:43;;;;;;;32.47;4.72;;;15.30;62.30;;;;;;4805378;29;20131;-73
2023/04/30 09:13:10;;;;;;;32.63;5.10;;;15.30;62.00;;;;;;4807307;29;20094;-74
2023/04/30 09:15:40;;;;;;;22.83;3.83;;;15.30;62.00;;;;;;4807357;29;20104;-73
2023/04/30 09:18:16;;;;;;;14.52;3.47;;;15.30;61.70;;;;;;4807811;29;20382;-73
2023/04/30 09:21:01;;;;;;;15.98;3.80;;;15.20;61.40;;;;;;4808078;29;20047;-74
2023/04/30 09:23:28;;;;;;;14.93;2.95;;;15.30;61.60;;;;;;4807787;29;20059;-73
2023/04/30 09:25:54;;;;;;;22.85;3.05;;;15.20;61.60;;;;;;4807767;29;20050;-73
2023/04/30 09:28:24;;;;;;;14.40;3.05;;;15.30;61.80;;;;;;4791689;29;20494;-74
2023/04/30 09:30:52;;;;;;;16.77;3.38;;;15.30;61.80;;;;;;4807847;29;20039;-74
2023/04/30 09:33:18;;;;;;;14.05;2.55;;;15.30;61.90;;;;;;4807475;29;20459;-74
2023/04/30 09:35:44;;;;;;;11.38;3.05;;;15.30;62.10;;;;;;4807480;29;20055;-74
2023/04/30 09:38:29;;;;;;;8.65;2.55;;;15.30;62.20;;;;;;4807027;29;20081;-73
2023/04/30 09:40:58;;;;;;;14.15;2.45;;;15.40;62.60;;;;;;4807584;29;20058;-73
2023/04/30 09:43:24;;;;;;;12.23;2.17;;;15.30;62.60;;;;;;4807543;29;20108;-73
2023/04/30 09:45:51;;;;;;;13.27;1.85;;;15.30;62.70;;;;;;4807796;29;20459;-74
2023/04/30 09:48:17;;;;;;;9.25;2.42;;;15.40;62.70;;;;;;4776927;29;20051;-73
2023/04/30 09:50:46;;;;;;;12.13;2.58;;;15.40;62.80;;;;;;4807914;29;20051;-73
2023/04/30 09:53:14;;;;;;;10.55;1.85;;;15.40;62.80;;;;;;4807358;29;20379;-74
2023/04/30 09:55:44;;;;;;;14.00;2.50;;;15.40;63.00;;;;;;4810037;29;20050;-74
2023/04/30 09:58:12;;;;;;;10.48;1.58;;;15.40;62.90;;;;;;4811204;29;20143;-74
2023/04/30 10:00:38;;;;;;;10.85;1.85;;;15.50;63.00;;;;;;4811635;29;20066;-74
2023/04/30 10:03:07;;;;;;;12.10;1.20;;;15.40;63.10;;;;;;4810604;29;20147;-74
2023/04/30 10:05:47;;;;;;;7.63;1.38;;;15.40;63.20;;;;;;4810873;29;20063;-73
2023/04/30 10:08:35;;;;;;;6.80;1.80;;;15.50;63.30;;;;;;4811129;29;20133;-73
2023/04/30 10:11:06;;;;;;;7.03;1.65;;;15.50;63.30;;;;;;4810973;29;20413;-74
2023/04/30 10:13:41;;;;;;;6.10;1.52;;;15.50;63.50;;;;;;4810443;29;20123;-73
2023/04/30 10:16:25;;;;;;;10.45;2.17;;;15.50;63.50;;;;;;4810541;29;20047;-73
2023/04/30 10:18:51;;;;;;;;;;;15.50;63.50;;;;;;4811271;29;20050;-74
2023/04/30 10:21:20;;;;;;;7.30;1.42;;;15.50;63.80;;;;;;4810655;29;19969;-74
2023/04/30 10:23:47;;;;;;;6.60;0.93;;;15.50;63.60;;;;;;4810489;29;20057;-73
2023/04/30 10:26:15;;;;;;;5.68;1.88;;;15.50;63.60;;;;;;4810216;29;20065;-74
2023/04/30 10:28:41;;;;;;;7.00;1.00;;;15.50;63.60;;;;;;4810412;29;20058;-74
2023/04/30 10:31:12;;;;;;;7.90;1.42;;;15.50;63.80;;;;;;4810402;29;20458;-74
2023/04/30 10:33:55;;;;;;;5.25;1.10;;;15.50;63.80;;;;;;4810518;29;20363;-73
2023/04/30 10:36:37;;;;;;;6.28;1.27;;;15.50;63.90;;;;;;4810125;29;20058;-73
2023/04/30 10:39:04;;;;;;;5.40;1.40;;;15.50;63.90;;;;;;4810247;29;20129;-73
2023/04/30 10:41:30;;;;;;;5.30;1.10;;;15.50;63.90;;;;;;4810016;29;20055;-74
2023/04/30 10:43:58;;;;;;;3.47;1.40;;;15.50;63.90;;;;;;4794243;29;20058;-74
2023/04/30 10:46:24;;;;;;;5.45;1.10;;;15.50;64.50;;;;;;4810423;29;20090;-74
2023/04/30 10:48:56;;;;;;;4.95;1.08;;;15.50;63.80;;;;;;4809827;29;20062;-74
2023/04/30 10:51:22;;;;;;;3.13;0.80;;;15.50;63.90;;;;;;4809721;29;20046;-74
2023/04/30 10:53:53;;;;;;;4.47;1.35;;;15.50;64.00;;;;;;4810001;29;20065;-74
2023/04/30 10:56:31;;;;;;;5.63;1.40;;;15.60;64.00;;;;;;4809969;29;20047;-74
2023/04/30 10:59:03;;;;;;;5.22;1.42;;;15.50;64.00;;;;;;4810746;29;20081;-75
2023/04/30 11:01:29;;;;;;;4.25;1.10;;;15.60;64.00;;;;;;4809249;29;20575;-74
2023/04/30 11:04:07;;;;;;;4.82;0.98;;;15.50;63.90;;;;;;4810459;29;20067;-74
2023/04/30 11:06:51;;;;;;;5.18;1.15;;;15.60;64.00;;;;;;4809200;29;20502;-74
2023/04/30 11:09:17;;;;;;;3.15;0.82;;;15.60;64.00;;;;;;4810121;29;20340;-73
2023/04/30 11:11:46;;;;;;;6.60;1.17;;;15.60;63.90;;;;;;4809416;29;20122;-73
2023/04/30 11:14:19;;;;;;;5.72;1.10;;;15.60;63.90;;;;;;4809413;29;20062;-73
2023/04/30 11:16:48;;;;;;;4.32;1.08;;;15.60;63.90;;;;;;4809804;29;20424;-73
2023/04/30 11:19:14;;;;;;;1.80;0.80;;;15.60;63.90;;;;;;4809598;29;20475;-75
2023/04/30 11:22:03;;;;;;;4.60;1.10;;;15.60;63.90;;;;;;4793705;29;20051;-74
2023/04/30 11:24:51;;;;;;;4.93;1.05;;;15.60;63.90;;;;;;4800641;29;20069;-73
2023/04/30 11:27:22;;;;;;;3.80;1.05;;;15.60;63.90;;;;;;4809785;29;20061;-75
2023/04/30 11:29:49;;;;;;;3.33;1.13;;;15.60;63.80;;;;;;4793603;29;20054;-73
2023/04/30 11:32:15;;;;;;;5.45;1.23;;;15.60;63.80;;;;;;4809087;29;20054;-74
2023/04/30 11:34:43;;;;;;;2.63;0.77;;;15.60;63.80;;;;;;4809199;29;20062;-74
2023/04/30 11:37:13;;;;;;;2.97;0.85;;;15.60;63.80;;;;;;4809926;29;20380;-74
2023/04/30 11:39:40;;;;;;;4.95;1.38;;;15.60;63.80;;;;;;4809091;29;20152;-74
2023/04/30 11:42:07;;;;;;;2.92;1.10;;;15.60;63.80;;;;;;4809155;29;20053;-74
2023/04/30 11:44:33;;;;;;;3.45;0.80;;;15.60;63.80;;;;;;4809522;29;20116;-74
2023/04/30 11:47:00;;;;;;;3.30;1.00;;;15.60;63.80;;;;;;4809315;29;20050;-74
2023/04/30 11:49:26;;;;;;;3.80;0.80;;;15.60;63.80;;;;;;4808979;29;20058;-75
2023/04/30 11:51:52;;;;;;;1.95;0.73;;;15.70;63.90;;;;;;4808494;29;20085;-74
2023/04/30 11:54:18;;;;;;;3.63;0.85;;;15.70;63.90;;;;;;4809063;29;20097;-75
2023/04/30 11:56:47;;;;;;;2.40;0.70;;;15.70;63.90;;;;;;4809065;29;20043;-74
2023/04/30 11:59:14;;;;;;;2.58;0.70;;;15.70;63.90;;;;;;4808859;29;20121;-74
2023/04/30 12:01:40;;;;;;;3.40;1.17;;;15.70;63.90;;;;;;4808743;29;20400;-74
2023/04/30 12:04:07;;;;;;;3.83;0.80;;;15.70;64.00;;;;;;4808902;29;20130;-73
2023/04/30 12:06:34;;;;;;;2.15;1.00;;;15.70;64.00;;;;;;4809249;29;20363;-74
2023/04/30 12:09:03;;;;;;;2.92;0.77;;;15.70;64.00;;;;;;4808737;29;20039;-74
2023/04/30 12:11:34;;;;;;;2.50;0.65;;;15.70;64.00;;;;;;4809337;29;20459;-74
2023/04/30 12:14:03;;;;;;;3.53;0.77;;;15.70;64.10;;;;;;4808408;29;20426;-73
2023/04/30 12:16:42;;;;;;;2.88;0.82;;;15.70;64.00;;;;;;4808334;29;20324;-74
2023/04/30 12:19:08;;;;;;;2.72;0.82;;;15.70;64.10;;;;;;4808604;29;20066;-75
2023/04/30 12:21:35;;;;;;;3.42;0.90;;;15.70;64.10;;;;;;4808989;29;20455;-74
2023/04/30 12:24:01;;;;;;;1.63;0.70;;;15.70;64.10;;;;;;4808704;29;20405;-73
2023/04/30 12:26:38;;;;;;;3.22;0.90;;;15.70;64.10;;;;;;4808701;29;20136;-74
2023/04/30 12:29:09;;;;;;;2.30;0.88;;;15.70;64.20;;;;;;4808376;29;20351;-74
2023/04/30 12:31:36;;;;;;;4.00;1.05;;;15.70;64.20;;;;;;4808392;29;20146;-74
2023/04/30 12:34:07;;;;;;;1.80;0.70;;;15.70;64.20;;;;;;4808391;29;20415;-75
2023/04/30 12:36:35;;;;;;;2.38;0.70;;;15.70;64.30;;;;;;4808217;29;20047;-75
2023/04/30 12:39:12;;;;;;;2.80;0.90;;;15.70;64.20;;;;;;4808010;29;20113;-74
2023/04/30 12:41:46;;;;;;;1.85;0.73;;;15.70;64.30;;;;;;4808245;29;20081;-74
2023/04/30 12:44:21;;;;;;;2.88;0.75;;;15.70;64.30;;;;;;4804934;29;20451;-74
2023/04/30 12:46:49;;;;;;;2.97;0.77;;;15.70;64.30;;;;;;4792414;29;20058;-74
2023/04/30 12:49:33;;;;;;;2.25;0.68;;;15.70;64.20;;;;;;4807810;29;20532;-74
2023/04/30 12:52:00;;;;;;;;;;;15.70;64.30;;;;;;4807839;29;20367;-75
2023/04/30 12:54:30;;;;;;;2.85;0.73;;;15.70;64.30;;;;;;4808112;29;20020;-74
2023/04/30 12:57:05;;;;;;;4.05;0.70;;;15.70;64.30;;;;;;4808139;29;20068;-75
2023/04/30 12:59:51;;;;;;;2.15;0.45;;;15.70;64.40;;;;;;4808308;29;20067;-74
2023/04/30 13:02:17;;;;;;;1.63;0.60;;;15.70;64.40;;;;;;4798474;29;20123;-74
2023/04/30 13:04:43;;;;;;;1.20;0.50;;;15.70;64.50;;;;;;4807884;29;20405;-75
2023/04/30 13:07:10;;;;;;;2.05;0.70;;;15.70;64.50;;;;;;4808211;29;20088;-74
2023/04/30 13:09:36;;;;;;;1.58;0.68;;;15.70;64.50;;;;;;4808314;29;20415;-75
2023/04/30 13:12:03;;;;;;;2.03;0.70;;;15.70;64.50;;;;;;4807896;29;20054;-75
2023/04/30 13:14:30;;;;;;;1.58;0.60;;;15.70;64.50;;;;;;4808070;29;20055;-74
2023/04/30 13:16:56;;;;;;;2.25;0.50;;;15.70;64.50;;;;;;4808345;29;20057;-75
2023/04/30 13:19:22;;;;;;;2.20;0.65;;;15.70;65.00;;;;;;4792248;29;20054;-74
2023/04/30 13:21:48;;;;;;;2.55;0.80;;;15.70;64.40;;;;;;4808053;29;20123;-74
2023/04/30 13:24:15;;;;;;;3.05;0.80;;;15.70;64.40;;;;;;4807499;29;20101;-75
2023/04/30 13:26:40;;;;;;;2.72;0.77;;;15.70;64.50;;;;;;4808014;29;20051;-75
2023/04/30 13:29:11;;;;;;;1.23;0.40;;;15.70;64.50;;;;;;4808734;29;20054;-73
2023/04/30 13:31:37;;;;;;;3.78;1.00;;;15.70;64.60;;;;;;4810852;29;20050;-74
2023/04/30 13:34:03;;;;;;;7.65;0.75;;;15.70;64.80;;;;;;4811158;29;20057;-71
2023/04/30 13:36:29;;;;;;;9.63;0.80;;;15.70;65.10;;;;;;4805669;29;20115;-75
2023/04/30 13:38:55;;;;;;;9.48;1.33;;;15.70;65.50;;;;;;4807860;29;20074;-76
2023/04/30 13:41:21;;;;;;;9.68;1.40;;;15.70;66.00;;;;;;4811462;29;20054;-75
2023/04/30 13:43:47;;;;;;;6.88;1.40;;;15.80;66.00;;;;;;4810890;29;20043;-73
2023/04/30 13:46:13;;;;;;;7.45;1.98;;;15.80;66.00;;;;;;4810959;29;20379;-73
2023/04/30 13:48:40;;;;;;;9.30;1.50;;;15.80;65.20;;;;;;4811014;29;20055;-76
2023/04/30 13:51:06;;;;;;;15.60;8.18;;;15.80;65.00;;;;;;4811536;29;20121;-73
2023/04/30 13:53:31;;;;;;;13.52;6.22;;;15.80;65.40;;;;;;4810886;29;20474;-75
2023/04/30 13:55:58;;;;;;;5.85;3.45;;;15.80;65.60;;;;;;4811091;29;20065;-76
2023/04/30 13:58:24;;;;;;;10.23;2.70;;;15.90;65.90;;;;;;4809923;29;20057;-77
2023/04/30 14:00:50;;;;;;;11.85;3.08;;;15.90;66.20;;;;;;4810865;29;20059;-73
2023/04/30 14:03:17;;;;;;;5.32;1.35;;;15.90;67.00;;;;;;4810597;29;20125;-74
2023/04/30 14:05:43;;;;;;;6.22;1.60;;;16.00;66.20;;;;;;4810992;29;20047;-71
2023/04/30 14:08:09;;;;;;;8.65;2.08;;;16.00;66.30;;;;;;4804646;29;20058;-74
2023/04/30 14:10:36;;;;;;;9.90;1.85;;;16.00;66.10;;;;;;4794855;29;20051;-74
2023/04/30 14:13:02;;;;;;;6.55;2.05;;;16.10;66.70;;;;;;4810436;29;20054;-76
2023/04/30 14:15:31;;;;;;;9.23;1.90;;;16.10;68.40;;;;;;4795004;29;20058;-77
2023/04/30 14:17:57;;;;;;;11.45;2.22;;;16.10;68.70;;;;;;4810514;29;20051;-74
2023/04/30 14:20:23;;;;;;;8.05;1.90;;;16.20;68.40;;;;;;4810569;29;20409;-73
2023/04/30 14:22:49;;;;;;;12.60;3.03;;;16.20;67.60;;;;;;4794750;29;20483;-75
2023/04/30 14:25:15;;;;;;;13.65;1.83;;;16.20;68.10;;;;;;4811444;29;20093;-74
2023/04/30 14:27:41;;;;;;;10.63;2.65;;;16.10;66.20;;;;;;4810773;29;20058;-75
2023/04/30 14:30:08;;;;;;;5.55;1.40;;;16.20;65.80;;;;;;4810523;29;20423;-76
2023/04/30 14:32:34;;;;;;;12.38;2.13;;;16.20;66.00;;;;;;4810035;29;20111;-75
2023/04/30 14:35:00;;;;;;;10.55;2.00;;;16.20;65.90;;;;;;4794572;29;20100;-76
2023/04/30 14:37:26;;;;;;;10.05;1.88;;;16.20;66.20;;;;;;4810042;29;20082;-75
2023/04/30 14:39:52;;;;;;;3.75;1.30;;;16.20;66.30;;;;;;4809939;29;20127;-75
2023/04/30 14:42:18;;;;;;;9.80;1.83;;;16.20;66.10;;;;;;4810097;29;20063;-76
2023/04/30 14:44:43;;;;;;;10.07;1.65;;;16.20;66.30;;;;;;4810436;29;20066;-76
2023/04/30 14:47:09;;;;;;;10.35;1.70;;;16.20;66.40;;;;;;4810265;29;20055;-75
2023/04/30 14:49:35;;;;;;;3.83;1.23;;;16.30;66.60;;;;;;4810298;29;20363;-75
2023/04/30 14:52:01;;;;;;;2.75;0.95;;;16.30;66.10;;;;;;4810462;29;20046;-75
2023/04/30 14:54:26;;;;;;;3.30;0.93;;;16.30;64.80;;;;;;4810262;29;20204;-75
2023/04/30 14:56:52;;;;;;;7.32;0.98;;;16.30;63.90;;;;;;4809990;29;20061;-75
2023/04/30 14:59:18;;;;;;;4.28;0.90;;;16.30;63.80;;;;;;4794209;29;20058;-74
2023/04/30 15:01:43;;;;;;;7.05;1.30;;;16.30;63.60;;;;;;4810465;29;20051;-74
2023/04/30 15:04:09;;;;;;;5.50;1.27;;;16.30;64.40;;;;;;4809559;29;20046;-73
2023/04/30 15:06:35;;;;;;;6.82;1.27;;;16.30;64.90;;;;;;4794384;29;20051;-73
2023/04/30 15:09:01;;;;;;;6.97;1.80;;;16.30;65.30;;;;;;4809807;29;20047;-76
2023/04/30 15:11:27;;;;;;;10.60;1.23;;;16.30;65.70;;;;;;4807240;29;20352;-74
2023/04/30 15:13:54;;;;;;;19.20;3.65;;;16.30;66.30;;;;;;4806274;29;20358;-75
2023/04/30 15:16:20;;;;;;;11.45;2.83;;;16.30;67.00;;;;;;4809710;29;20051;-74
2023/04/30 15:18:46;;;;;;;8.40;2.45;;;16.30;67.50;;;;;;4799844;29;20420;-71
2023/04/30 15:21:12;;;;;;;5.95;0.93;;;16.30;67.80;;;;;;4785044;29;20531;-73
2023/04/30 15:23:37;;;;;;;5.32;1.15;;;16.30;67.90;;;;;;4805836;29;20132;-74
2023/04/30 15:26:03;;;;;;;6.72;1.88;;;16.30;68.00;;;;;;4809269;29;20050;-73
2023/04/30 15:28:31;;;;;;;6.68;1.30;;;16.30;68.10;;;;;;4793692;29;20057;-74
2023/04/30 15:30:58;;;;;;;12.98;1.85;;;16.20;68.20;;;;;;4809520;29;20407;-73
2023/04/30 15:33:26;;;;;;;8.00;1.80;;;16.30;69.10;;;;;;4790880;29;20066;-72
2023/04/30 15:35:52;;;;;;;6.68;1.42;;;16.30;70.30;;;;;;4800697;29;20147;-72
2023/04/30 15:38:18;;;;;;;8.90;1.67;;;16.30;70.00;;;;;;4799090;29;20189;-72
2023/04/30 15:40:44;;;;;;;4.25;1.42;;;16.30;70.10;;;;;;4799291;29;20046;-71
2023/04/30 15:43:10;;;;;;;7.05;1.48;;;16.30;70.40;;;;;;4802735;29;20043;-71
2023/04/30 15:45:36;;;;;;;3.25;0.77;;;16.30;70.50;;;;;;4798061;29;20043;-75
2023/04/30 15:48:01;;;;;;;8.70;1.67;;;16.30;70.60;;;;;;4791166;30;20356;-75
2023/04/30 15:50:27;;;;;;;14.75;2.15;;;16.30;70.70;;;;;;4791300;30;20146;-75
2023/04/30 15:52:53;;;;;;;6.90;1.25;;;16.30;70.80;;;;;;4793980;29;21523;-76
2023/04/30 15:55:19;;;;;;;9.25;1.70;;;16.30;70.90;;;;;;4809271;29;20112;-73
2023/04/30 15:57:45;;;;;;;14.02;1.45;;;16.30;70.70;;;;;;4805409;29;20053;-74
2023/04/30 16:00:13;;;;;;;5.05;1.63;;;16.30;70.10;;;;;;4807869;29;20389;-70
2023/04/30 16:02:39;;;;;;;7.72;1.50;;;16.30;69.50;;;;;;4808979;29;20137;-77
2023/04/30 16:05:05;;;;;;;8.50;1.20;;;16.30;69.30;;;;;;4808855;29;20129;-76
2023/04/30 16:07:31;;;;;;;5.60;1.25;;;16.30;69.30;;;;;;4793122;29;20050;-76
2023/04/30 16:09:58;;;;;;;8.10;1.40;;;16.30;69.70;;;;;;4808516;29;20051;-77
2023/04/30 16:12:25;;;;;;;6.70;1.33;;;16.30;69.90;;;;;;4808989;29;20129;-76
2023/04/30 16:14:52;;;;;;;6.05;1.65;;;16.30;70.00;;;;;;4808611;29;20115;-76
2023/04/30 16:17:18;;;;;;;6.63;1.58;;;16.30;70.80;;;;;;4808860;29;20059;-76
2023/04/30 16:19:43;;;;;;;11.75;1.60;;;16.30;70.80;;;;;;4808944;29;20058;-76
2023/04/30 16:22:09;;;;;;;7.63;1.58;;;16.30;70.50;;;;;;4809063;29;20451;-76
2023/04/30 16:24:35;;;;;;;9.38;1.42;;;16.30;70.30;;;;;;4808480;29;20133;-74
2023/04/30 16:27:01;;;;;;;12.02;1.67;;;16.40;70.00;;;;;;4808353;29;20463;-75
2023/04/30 16:29:27;;;;;;;12.32;2.00;;;16.40;70.30;;;;;;4806579;29;20070;-77
2023/04/30 19:40:06;;;;;;;5.60;2.35;;;15.80;66.60;;;;;;5598701;24;20428;-76
2023/04/30 19:42:32;;;;;;;8.43;3.72;;;15.80;66.60;;;;;;4822227;29;20118;-72
2023/04/30 19:44:58;;;;;;;7.85;3.60;;;15.80;66.10;;;;;;4814903;29;20522;-74
2023/04/30 19:47:24;;;;;;;9.55;3.83;;;15.70;65.90;;;;;;4809469;29;20058;-75
2023/04/30 19:49:50;;;;;;;8.52;4.20;;;15.70;65.80;;;;;;4810004;29;20051;-76
2023/04/30 19:52:16;;;;;;;10.73;4.13;;;15.60;65.80;;;;;;4788475;29;20057;-75
2023/04/30 19:54:47;;;;;;;7.88;3.88;;;15.50;65.80;;;;;;4839105;29;20050;-75
2023/04/30 19:57:13;;;;;;;8.45;3.78;;;15.40;65.80;;;;;;4818176;29;20051;-74
2023/04/30 19:59:39;;;;;;;8.27;3.78;;;15.40;65.90;;;;;;4832005;29;20049;-76
2023/04/30 20:02:06;;;;;;;5.30;3.30;;;15.30;65.90;;;;;;4841562;29;20054;-75
2023/04/30 20:04:32;;;;;;;5.22;3.28;;;15.20;66.00;;;;;;4827706;29;20458;-76
2023/04/30 20:06:59;;;;;;;6.78;2.97;;;15.10;65.90;;;;;;4817644;29;20055;-75
2023/04/30 20:09:25;;;;;;;9.27;3.80;;;15.10;66.00;;;;;;4826578;29;20442;-75
2023/04/30 20:11:51;;;;;;;7.18;3.30;;;15.10;65.90;;;;;;4825657;29;20066;-76
2023/04/30 20:14:17;;;;;;;6.53;3.45;;;15.10;66.50;;;;;;4827341;29;20057;-74
2023/04/30 20:16:43;;;;;;;8.02;3.72;;;15.10;65.80;;;;;;4826329;29;20509;-76
2023/04/30 20:19:09;;;;;;;8.95;3.10;;;15.10;65.70;;;;;;4827093;29;20205;-76
2023/04/30 20:21:35;;;;;;;7.90;3.67;;;15.00;65.50;;;;;;4826736;29;20057;-76
2023/04/30 20:24:01;;;;;;;7.30;3.28;;;14.90;65.40;;;;;;4809467;29;20055;-75
2023/04/30 20:26:27;;;;;;;8.68;3.50;;;14.90;65.60;;;;;;4809148;29;20058;-75
2023/04/30 20:28:53;;;;;;;10.82;4.35;;;14.90;65.60;;;;;;4808560;29;20062;-76